Isle la Motte, Vermont
Current Conditions -  °F | °C
As of 5:15 PM on Monday 20 Oct 2014 (Local Time) from KFSO Reporting Station
Drizzle Drizzle  
Wind Chill: 45°   Ceiling: 4800
Heat Index: 45°   Visibility: 10mi
Dew Point: 37°   Wind: 0mph
Humidity: 76%   Direction: NA
Pressure: 29.93"   Gusts: NA
Location:  44.88°N, 73.34°W
Report Text: KFSO 202115Z AUTO 00000KT 10SM -DZ SCT042 BKN048 OVC060 07/03 A2993 RMK AO2 T00700030
Loading
Personal Weather Stations






























Interactive Weather Map
Tropical Storm Tracking
New forecast layout! Learn more

10-Day Weather Forecast

Advertisements
Track Severe Weather on mobile